Time;durP1;ratioP1;P1;durP2;ratioP2;P2;SDS_P1;SDS_P2;PMS_P1;PMS_P2;Temp;Humidity;BMP_temperature;BMP_pressure;BME280_temperature;BME280_humidity;BME280_pressure;Samples;Min_cycle;Max_cycle;Signal;HPM_P1;HPM_P2
2022/11/09 00:01:23;;;;;;;12.17;8.20;;;;;;;10.08;100.00;99609.44;4987104;28;20222;-64
2022/11/09 00:03:54;;;;;;;9.37;7.50;;;;;;;9.97;100.00;99598.09;5010826;28;20708;-63
2022/11/09 00:06:19;;;;;;;11.70;7.17;;;;;;;9.86;100.00;99595.34;5009734;28;20183;-65
2022/11/09 00:08:44;;;;;;;15.50;7.27;;;;;;;9.84;100.00;99574.03;5010236;28;20297;-63
2022/11/09 00:11:10;;;;;;;9.93;5.70;;;;;;;10.11;100.00;99573.28;5010131;28;20272;-65
2022/11/09 00:13:38;;;;;;;8.97;5.70;;;;;;;10.35;100.00;99581.22;5015515;28;20187;-64
2022/11/09 00:16:05;;;;;;;6.97;5.07;;;;;;;10.59;100.00;99585.78;5002601;28;20296;-64
2022/11/09 00:18:31;;;;;;;8.53;4.40;;;;;;;10.69;100.00;99578.31;5009777;28;20665;-64
2022/11/09 00:20:56;;;;;;;6.27;4.77;;;;;;;10.85;100.00;99573.03;5003122;28;20261;-65
2022/11/09 00:23:22;;;;;;;6.90;4.63;;;;;;;11.01;100.00;99560.00;5019898;28;20202;-64
2022/11/09 00:25:47;;;;;;;6.83;4.33;;;;;;;11.04;100.00;99570.09;5011354;28;20186;-65
2022/11/09 00:28:13;;;;;;;8.30;3.90;;;;;;;11.19;100.00;99568.25;5010778;28;20556;-65
2022/11/09 00:30:39;;;;;;;7.07;5.20;;;;;;;11.25;100.00;99568.69;4985146;28;20645;-64
2022/11/09 00:33:04;;;;;;;10.40;7.53;;;;;;;11.09;100.00;99591.22;5021674;28;20174;-65
2022/11/09 00:35:30;;;;;;;10.57;7.87;;;;;;;11.05;100.00;99603.47;5011278;28;20568;-65
2022/11/09 00:37:55;;;;;;;11.10;8.10;;;;;;;10.85;100.00;99602.16;5024539;28;20238;-65
2022/11/09 00:40:20;;;;;;;10.13;5.87;;;;;;;10.86;100.00;99600.41;5030031;28;20189;-65
2022/11/09 00:42:45;;;;;;;8.13;6.53;;;;;;;10.70;100.00;99603.94;5061877;28;20268;-64
2022/11/09 00:45:11;;;;;;;9.00;5.97;;;;;;;10.70;100.00;99609.09;5040106;28;20178;-64
2022/11/09 00:47:36;;;;;;;10.03;6.87;;;;;;;10.70;100.00;99590.28;5034750;28;20182;-64
2022/11/09 00:50:02;;;;;;;12.87;8.37;;;;;;;10.70;100.00;99595.41;5033437;28;20288;-64
2022/11/09 00:52:28;;;;;;;11.23;8.10;;;;;;;10.71;100.00;99586.78;5029361;28;20218;-63
2022/11/09 00:54:53;;;;;;;11.90;7.40;;;;;;;10.75;100.00;99590.78;5033942;28;20508;-63
2022/11/09 00:57:18;;;;;;;11.07;6.90;;;;;;;10.49;100.00;99585.53;5040487;28;20209;-64
2022/11/09 00:59:43;;;;;;;8.27;7.10;;;;;;;10.67;100.00;99588.72;5040461;28;20193;-64
2022/11/09 01:02:09;;;;;;;8.43;7.20;;;;;;;10.59;100.00;99596.94;5057057;28;20217;-63
2022/11/09 01:04:34;;;;;;;9.83;7.43;;;;;;;10.59;100.00;99602.06;5034591;28;20325;-63
2022/11/09 01:07:00;;;;;;;11.37;7.97;;;;;;;10.55;100.00;99610.06;5034279;28;20647;-64
2022/11/09 01:09:25;;;;;;;11.57;7.63;;;;;;;10.64;100.00;99620.59;5034321;28;20697;-65
2022/11/09 01:11:50;;;;;;;10.37;7.53;;;;;;;10.74;100.00;99636.28;5052901;28;20232;-64
2022/11/09 01:14:16;;;;;;;8.97;7.23;;;;;;;10.59;100.00;99643.22;5035819;28;20193;-65
2022/11/09 01:16:41;;;;;;;8.60;7.20;;;;;;;10.68;100.00;99635.81;5033802;28;20174;-65
2022/11/09 01:19:06;;;;;;;8.73;6.87;;;;;;;10.59;100.00;99647.50;5034493;28;20782;-64
2022/11/09 01:21:31;;;;;;;9.33;7.30;;;;;;;10.62;100.00;99649.91;5048303;28;20221;-65
2022/11/09 01:23:57;;;;;;;9.13;8.23;;;;;;;10.38;100.00;99650.50;5042254;28;20231;-64
2022/11/09 01:26:23;;;;;;;11.67;8.23;;;;;;;10.37;100.00;99654.00;5033508;28;20549;-64
2022/11/09 01:28:48;;;;;;;9.67;8.30;;;;;;;10.18;100.00;99649.09;5033979;28;20205;-66
2022/11/09 01:31:17;;;;;;;12.07;8.40;;;;;;;10.04;100.00;99655.06;5042896;28;20220;-64
2022/11/09 01:33:42;;;;;;;10.67;7.80;;;;;;;10.09;100.00;99660.75;5038659;28;20259;-63
2022/11/09 01:36:11;;;;;;;11.50;8.77;;;;;;;10.02;100.00;99654.31;5033571;28;20194;-64
2022/11/09 01:38:37;;;;;;;11.43;8.03;;;;;;;10.04;100.00;99649.91;5032121;28;20268;-64
2022/11/09 01:41:05;;;;;;;17.17;8.20;;;;;;;9.94;100.00;99647.06;5039617;28;20574;-64
2022/11/09 01:43:30;;;;;;;9.57;8.10;;;;;;;9.97;100.00;99646.06;5040664;28;20217;-66
2022/11/09 01:46:00;;;;;;;9.30;7.40;;;;;;;10.21;100.00;99640.38;5035762;28;20217;-64
2022/11/09 01:48:37;;;;;;;9.53;5.77;;;;;;;10.33;100.00;99639.63;5031393;28;20641;-65
2022/11/09 01:51:15;;;;;;;7.87;6.33;;;;;;;10.42;100.00;99638.25;5033834;28;20250;-63
2022/11/09 01:53:44;;;;;;;12.97;6.90;;;;;;;10.68;100.00;99636.66;5037699;28;20178;-66
2022/11/09 01:56:12;;;;;;;6.13;4.50;;;;;;;10.81;100.00;99627.25;5015799;28;20174;-64
2022/11/09 01:59:14;;;;;;;5.33;4.30;;;;;;;10.79;100.00;99628.25;5039533;28;20617;-65
2022/11/09 02:01:41;;;;;;;3.13;2.83;;;;;;;11.00;100.00;99625.25;5036935;28;20679;-64
2022/11/09 02:04:13;;;;;;;4.10;2.90;;;;;;;11.02;100.00;99613.13;5035028;28;20492;-65
2022/11/09 02:06:39;;;;;;;2.77;2.33;;;;;;;11.05;100.00;99608.63;5032988;28;20193;-64
2022/11/09 02:09:32;;;;;;;3.70;2.80;;;;;;;11.07;100.00;99599.03;5033649;28;20521;-63
2022/11/09 02:11:58;;;;;;;5.33;3.40;;;;;;;11.10;100.00;99590.28;5032513;28;20225;-65
2022/11/09 02:14:25;;;;;;;5.83;4.00;;;;;;;10.98;100.00;99586.75;5034866;28;20185;-65
2022/11/09 02:16:50;;;;;;;5.00;4.40;;;;;;;10.99;100.00;99580.69;5031488;28;20213;-64
2022/11/09 02:19:16;;;;;;;6.50;4.13;;;;;;;10.96;100.00;99576.56;5033363;28;20178;-65
2022/11/09 02:21:41;;;;;;;5.53;4.00;;;;;;;11.06;100.00;99568.25;5049777;28;20313;-64
2022/11/09 02:24:07;;;;;;;6.50;4.40;;;;;;;11.01;100.00;99573.69;5014755;28;20198;-65
2022/11/09 02:26:38;;;;;;;5.60;3.93;;;;;;;11.06;100.00;99568.25;5022506;28;20625;-65
2022/11/09 02:29:07;;;;;;;6.03;4.53;;;;;;;11.11;100.00;99554.16;5031558;28;20202;-64
2022/11/09 02:31:37;;;;;;;7.23;4.00;;;;;;;11.17;100.00;99554.69;5037138;28;20216;-65
2022/11/09 02:34:10;;;;;;;6.23;4.63;;;;;;;11.11;100.00;99568.75;5039429;28;20197;-65
2022/11/09 02:36:35;;;;;;;5.67;4.70;;;;;;;11.27;100.00;99566.00;5031724;28;20360;-66
2022/11/09 02:39:01;;;;;;;6.53;4.73;;;;;;;11.25;100.00;99560.13;5034776;28;20212;-67
2022/11/09 02:41:29;;;;;;;10.37;5.60;;;;;;;11.33;100.00;99573.34;5036236;28;20217;-65
2022/11/09 02:43:55;;;;;;;7.33;5.10;;;;;;;11.42;100.00;99583.03;5039272;28;20181;-64
2022/11/09 02:46:28;;;;;;;8.37;5.43;;;;;;;11.37;100.00;99581.69;5035300;28;20288;-65
2022/11/09 02:48:53;;;;;;;7.93;5.50;;;;;;;11.33;100.00;99570.75;5034278;28;20246;-65
2022/11/09 02:51:19;;;;;;;5.83;5.13;;;;;;;11.16;100.00;99556.41;5023597;28;20221;-64
2022/11/09 02:53:44;;;;;;;6.00;5.40;;;;;;;11.17;100.00;99547.75;5047635;28;20185;-64
2022/11/09 02:56:09;;;;;;;9.00;6.20;;;;;;;11.21;100.00;99545.81;5034208;28;20185;-65
2022/11/09 02:58:34;;;;;;;9.60;5.97;;;;;;;11.22;100.00;99535.41;5046851;28;20204;-64
2022/11/09 03:01:00;;;;;;;9.70;7.00;;;;;;;11.12;100.00;99531.81;5050096;28;20578;-65
2022/11/09 03:03:25;;;;;;;7.67;6.47;;;;;;;11.03;100.00;99527.28;5060052;28;20185;-64
2022/11/09 03:05:50;;;;;;;5.53;4.83;;;;;;;10.97;100.00;99542.16;5052315;28;20542;-65
2022/11/09 03:08:15;;;;;;;7.40;5.43;;;;;;;11.03;100.00;99555.59;5051443;28;20519;-65
2022/11/09 03:10:41;;;;;;;6.90;5.00;;;;;;;11.18;100.00;99554.56;5046472;28;20216;-65
2022/11/09 03:13:06;;;;;;;7.27;4.90;;;;;;;11.22;100.00;99560.34;5062753;28;20649;-65
2022/11/09 03:15:31;;;;;;;6.87;4.77;;;;;;;11.08;100.00;99551.78;5052054;28;20262;-65
2022/11/09 03:17:56;;;;;;;5.93;4.87;;;;;;;11.21;100.00;99569.84;5052324;28;20170;-65
2022/11/09 03:20:22;;;;;;;4.93;4.47;;;;;;;11.16;100.00;99587.31;5043635;28;20611;-64
2022/11/09 03:22:47;;;;;;;5.13;4.57;;;;;;;11.21;100.00;99593.00;5064839;28;20310;-64
2022/11/09 03:25:12;;;;;;;6.50;4.80;;;;;;;11.21;100.00;99599.88;5051922;28;20696;-64
2022/11/09 03:27:38;;;;;;;4.60;4.17;;;;;;;11.29;100.00;99610.50;5051123;28;20655;-66
2022/11/09 03:30:03;;;;;;;6.63;4.47;;;;;;;11.38;100.00;99619.38;5044917;28;21009;-64
2022/11/09 03:32:29;;;;;;;5.77;4.20;;;;;;;11.34;100.00;99623.06;5050317;28;20209;-64
2022/11/09 03:34:54;;;;;;;4.63;4.20;;;;;;;11.38;100.00;99625.34;5052002;28;20189;-64
2022/11/09 03:37:19;;;;;;;6.60;4.60;;;;;;;11.28;100.00;99624.31;5029756;28;20256;-65
2022/11/09 03:39:45;;;;;;;5.83;4.30;;;;;;;11.03;100.00;99619.94;5031845;28;20636;-63
2022/11/09 03:42:10;;;;;;;4.50;4.10;;;;;;;11.04;100.00;99619.81;5053625;28;20252;-64
2022/11/09 03:44:35;;;;;;;4.17;3.77;;;;;;;11.07;100.00;99621.38;5029983;28;20217;-64
2022/11/09 03:47:00;;;;;;;4.43;3.93;;;;;;;10.94;100.00;99616.16;5030618;28;20364;-65
2022/11/09 03:49:26;;;;;;;4.43;4.10;;;;;;;11.05;100.00;99621.47;5022299;28;20202;-65
2022/11/09 03:51:51;;;;;;;7.47;4.37;;;;;;;11.07;100.00;99624.75;5037945;28;20221;-64
2022/11/09 03:54:16;;;;;;;5.40;4.90;;;;;;;11.07;100.00;99634.25;5034496;28;20257;-64
2022/11/09 03:56:42;;;;;;;5.80;4.57;;;;;;;11.10;100.00;99631.47;5031945;28;20182;-64
2022/11/09 03:59:07;;;;;;;8.37;4.87;;;;;;;11.27;100.00;99643.25;5043623;28;20186;-64
2022/11/09 04:01:32;;;;;;;5.67;5.17;;;;;;;11.35;100.00;99637.59;5035888;28;20333;-63
2022/11/09 04:03:58;;;;;;;6.03;5.43;;;;;;;11.30;100.00;99645.63;5030028;28;20174;-64
2022/11/09 04:06:23;;;;;;;6.97;6.27;;;;;;;11.25;100.00;99638.22;5029184;28;20182;-64
2022/11/09 04:08:48;;;;;;;10.67;6.50;;;;;;;11.14;100.00;99641.47;5031020;28;20194;-64
2022/11/09 04:11:13;;;;;;;8.20;7.13;;;;;;;11.15;100.00;99642.31;5030161;28;20326;-63
2022/11/09 04:13:39;;;;;;;8.00;7.23;;;;;;;11.24;100.00;99638.31;5025949;28;20183;-63
2022/11/09 04:16:04;;;;;;;8.67;7.77;;;;;;;11.30;100.00;99645.63;5028910;28;20304;-64
2022/11/09 04:18:29;;;;;;;8.67;7.80;;;;;;;11.39;100.00;99645.03;5026191;28;20179;-63
2022/11/09 04:20:57;;;;;;;9.57;8.77;;;;;;;11.35;100.00;99646.16;5026812;28;20217;-63
2022/11/09 04:23:23;;;;;;;10.77;9.77;;;;;;;11.33;100.00;99639.47;5019329;28;20205;-64
2022/11/09 04:25:48;;;;;;;13.60;9.90;;;;;;;11.26;100.00;99646.75;5028746;28;20196;-64
2022/11/09 04:28:13;;;;;;;12.30;11.10;;;;;;;11.29;100.00;99647.38;5030316;28;20213;-64
2022/11/09 04:30:38;;;;;;;11.10;10.03;;;;;;;11.33;100.00;99648.00;5003218;28;20329;-64
2022/11/09 04:33:04;;;;;;;13.67;12.27;;;;;;;11.25;100.00;99645.94;5042367;28;20178;-64
2022/11/09 04:35:32;;;;;;;13.83;12.57;;;;;;;11.20;100.00;99636.84;5029518;28;20277;-65
2022/11/09 04:38:00;;;;;;;13.67;12.27;;;;;;;11.23;100.00;99627.16;5028286;28;20700;-64
2022/11/09 04:40:28;;;;;;;15.07;13.67;;;;;;;11.26;100.00;99628.72;5022215;28;20555;-65
2022/11/09 04:42:53;;;;;;;14.57;13.23;;;;;;;11.36;100.00;99637.53;5029235;28;20178;-64
2022/11/09 04:45:20;;;;;;;14.63;13.13;;;;;;;11.43;100.00;99643.09;5033249;28;20668;-64
2022/11/09 04:47:45;;;;;;;15.57;13.97;;;;;;;11.43;100.00;99632.78;5028883;28;20605;-64
2022/11/09 04:50:11;;;;;;;15.40;13.77;;;;;;;11.53;100.00;99631.25;5020150;28;20237;-65
2022/11/09 04:52:37;;;;;;;15.27;13.73;;;;;;;11.37;100.00;99628.84;5040360;28;20265;-65
2022/11/09 04:55:03;;;;;;;15.43;13.87;;;;;;;11.26;100.00;99629.56;5030772;28;20277;-64
2022/11/09 04:57:28;;;;;;;16.10;14.30;;;;;;;11.18;100.00;99616.34;5036312;28;20669;-64
2022/11/09 04:59:53;;;;;;;17.07;15.47;;;;;;;11.09;100.00;99607.47;5036917;28;20256;-63
2022/11/09 05:02:18;;;;;;;17.90;16.20;;;;;;;10.96;100.00;99602.31;5049902;28;20232;-65
2022/11/09 05:04:44;;;;;;;19.33;17.33;;;;;;;11.02;100.00;99608.78;5022874;28;20197;-64
2022/11/09 05:07:09;;;;;;;21.33;19.37;;;;;;;11.03;100.00;99596.75;5030157;28;20471;-64
2022/11/09 05:09:34;;;;;;;21.97;19.93;;;;;;;11.01;100.00;99589.13;5030588;28;20202;-64
2022/11/09 05:12:00;;;;;;;22.23;20.03;;;;;;;10.96;100.00;99589.44;5051853;28;20221;-64
2022/11/09 05:14:25;;;;;;;23.27;20.90;;;;;;;10.96;100.00;99586.88;5029510;28;20182;-64
2022/11/09 05:16:50;;;;;;;24.83;22.53;;;;;;;10.81;100.00;99587.84;5030371;28;20228;-64
2022/11/09 05:19:15;;;;;;;23.40;21.13;;;;;;;10.95;100.00;99592.94;5030771;28;20551;-64
2022/11/09 05:21:41;;;;;;;24.13;21.77;;;;;;;10.92;100.00;99597.44;5054007;28;20233;-65
2022/11/09 05:24:09;;;;;;;24.50;21.77;;;;;;;10.88;100.00;99609.69;5036469;28;20182;-65
2022/11/09 05:26:38;;;;;;;23.50;21.10;;;;;;;10.81;100.00;99603.28;5033524;28;20182;-65
2022/11/09 05:29:09;;;;;;;23.80;21.23;;;;;;;10.85;100.00;99596.19;5066208;28;20628;-65
2022/11/09 05:31:36;;;;;;;23.30;21.07;;;;;;;10.94;100.00;99593.84;5048692;28;20722;-65
2022/11/09 05:34:03;;;;;;;22.70;20.50;;;;;;;10.91;100.00;99595.78;5036489;28;20235;-67
2022/11/09 05:36:29;;;;;;;22.83;20.37;;;;;;;10.88;100.00;99586.53;5033182;28;20668;-64
2022/11/09 05:38:56;;;;;;;20.87;18.73;;;;;;;10.87;100.00;99582.28;5035500;28;20193;-65
2022/11/09 05:41:21;;;;;;;20.80;18.80;;;;;;;10.79;100.00;99577.66;5034289;28;20232;-65
2022/11/09 05:43:48;;;;;;;21.67;19.53;;;;;;;10.94;100.00;99582.72;5055608;28;20202;-64
2022/11/09 05:46:15;;;;;;;21.07;18.63;;;;;;;10.85;100.00;99578.19;5040715;28;20189;-66
2022/11/09 05:48:41;;;;;;;20.80;18.77;;;;;;;10.85;100.00;99581.56;5063692;28;20294;-64
2022/11/09 05:51:08;;;;;;;22.00;19.70;;;;;;;10.72;100.00;99591.81;5033963;28;20259;-65
2022/11/09 05:53:33;;;;;;;22.53;20.33;;;;;;;10.81;100.00;99605.84;5042649;28;20181;-65
2022/11/09 05:56:07;;;;;;;22.53;20.17;;;;;;;10.75;100.00;99598.50;5053476;28;20204;-64
2022/11/09 05:58:36;;;;;;;21.90;19.80;;;;;;;10.75;100.00;99601.91;5048583;28;20205;-65
2022/11/09 06:01:07;;;;;;;22.77;20.37;;;;;;;10.86;100.00;99593.50;5052242;28;20225;-64
2022/11/09 06:03:33;;;;;;;26.00;20.10;;;;;;;10.94;100.00;99595.59;5056529;28;20180;-64
2022/11/09 06:06:04;;;;;;;23.73;21.07;;;;;;;10.85;100.00;99597.00;5053274;28;20546;-65
2022/11/09 06:08:29;;;;;;;21.20;19.17;;;;;;;10.85;100.00;99598.75;5034439;28;20185;-64
2022/11/09 06:10:59;;;;;;;22.53;19.80;;;;;;;10.91;100.00;99599.19;5049979;28;20258;-63
2022/11/09 06:13:25;;;;;;;20.30;18.13;;;;;;;10.90;100.00;99602.69;5043915;28;20637;-64
2022/11/09 06:15:58;;;;;;;21.10;19.00;;;;;;;10.88;100.00;99614.81;5053288;28;20193;-64
2022/11/09 06:18:25;;;;;;;19.83;17.83;;;;;;;10.84;100.00;99635.69;5034494;28;20273;-65
2022/11/09 06:20:53;;;;;;;20.97;18.77;;;;;;;10.86;100.00;99626.97;5057500;28;20225;-65
2022/11/09 06:23:18;;;;;;;19.87;17.77;;;;;;;10.77;100.00;99628.38;5052363;28;20193;-64
2022/11/09 06:25:44;;;;;;;19.50;17.50;;;;;;;10.90;100.00;99631.00;5052930;28;20189;-64
2022/11/09 06:28:09;;;;;;;20.20;17.90;;;;;;;10.94;100.00;99634.19;5052327;28;20177;-63
2022/11/09 06:30:34;;;;;;;20.57;18.47;;;;;;;10.99;100.00;99642.47;5046648;28;20312;-64
2022/11/09 06:33:01;;;;;;;20.17;18.17;;;;;;;10.98;100.00;99639.03;5063997;28;20176;-64
2022/11/09 06:35:27;;;;;;;20.00;18.03;;;;;;;10.90;100.00;99636.16;5033175;28;20511;-64
2022/11/09 06:37:59;;;;;;;19.43;17.53;;;;;;;10.92;100.00;99642.00;5051214;28;20295;-66
2022/11/09 06:40:25;;;;;;;19.47;17.50;;;;;;;10.94;100.00;99645.31;5023372;28;20236;-64
2022/11/09 06:42:50;;;;;;;19.93;18.03;;;;;;;10.89;100.00;99638.81;5034305;28;20177;-64
2022/11/09 06:45:16;;;;;;;20.60;18.03;;;;;;;10.84;100.00;99640.84;5053337;28;20173;-64
2022/11/09 06:47:41;;;;;;;21.70;18.27;;;;;;;10.89;100.00;99639.66;5051077;28;20182;-65
2022/11/09 06:50:08;;;;;;;20.37;18.37;;;;;;;10.89;100.00;99646.53;5041466;28;20208;-65
2022/11/09 06:52:33;;;;;;;20.10;17.87;;;;;;;11.00;100.00;99653.56;5046353;28;20190;-65
2022/11/09 06:54:58;;;;;;;21.13;18.93;;;;;;;10.92;100.00;99651.50;5050306;28;20172;-64
2022/11/09 06:57:24;;;;;;;18.70;16.80;;;;;;;10.93;100.00;99655.72;5058826;28;20262;-64
2022/11/09 06:59:49;;;;;;;19.27;16.97;;;;;;;11.07;100.00;99660.78;5053358;28;20184;-63
2022/11/09 07:02:19;;;;;;;18.80;16.17;;;;;;;11.06;100.00;99668.63;5058256;28;20675;-62
2022/11/09 07:04:44;;;;;;;17.33;15.53;;;;;;;10.92;100.00;99672.06;5034486;28;20192;-63
2022/11/09 07:07:10;;;;;;;17.13;15.50;;;;;;;10.84;100.00;99671.72;5052020;28;20178;-62
2022/11/09 07:09:35;;;;;;;17.03;15.30;;;;;;;10.98;100.00;99680.22;5067482;28;20209;-63
2022/11/09 07:12:00;;;;;;;17.33;15.73;;;;;;;10.94;100.00;99678.78;5056847;28;20255;-62
2022/11/09 07:14:26;;;;;;;17.17;15.57;;;;;;;10.89;100.00;99685.97;5052354;28;20186;-63
2022/11/09 07:16:51;;;;;;;15.10;13.60;;;;;;;10.96;100.00;99683.81;5051468;28;20183;-65
2022/11/09 07:19:16;;;;;;;16.23;14.03;;;;;;;11.06;100.00;99684.88;5051789;28;20193;-62
2022/11/09 07:21:42;;;;;;;15.80;14.30;;;;;;;10.95;100.00;99688.16;5054727;28;20282;-63
2022/11/09 07:24:07;;;;;;;16.97;15.37;;;;;;;11.03;100.00;99690.22;5054538;28;20182;-63
2022/11/09 07:26:32;;;;;;;16.47;14.97;;;;;;;11.07;100.00;99686.53;5051333;28;20231;-63
2022/11/09 07:28:57;;;;;;;16.60;14.90;;;;;;;10.97;100.00;99691.44;5051534;28;20621;-63
2022/11/09 07:31:28;;;;;;;17.27;15.60;;;;;;;10.97;100.00;99688.03;5051818;28;20220;-63
2022/11/09 07:33:54;;;;;;;16.83;15.17;;;;;;;11.07;100.00;99689.09;5038824;28;20718;-63
2022/11/09 07:36:19;;;;;;;17.93;16.13;;;;;;;10.92;100.00;99690.91;5032882;28;20185;-63
2022/11/09 07:38:45;;;;;;;16.30;14.73;;;;;;;10.96;100.00;99694.94;5051920;28;20225;-63
2022/11/09 07:41:10;;;;;;;17.97;15.70;;;;;;;11.05;100.00;99708.16;5044560;28;20312;-63
2022/11/09 07:43:35;;;;;;;18.00;15.10;;;;;;;11.01;100.00;99707.50;5058357;28;20189;-63
2022/11/09 07:46:03;;;;;;;16.47;14.90;;;;;;;11.01;100.00;99707.50;5054115;28;20189;-62
2022/11/09 07:48:28;;;;;;;17.23;15.37;;;;;;;11.02;100.00;99696.28;5066482;28;20231;-63
2022/11/09 07:50:55;;;;;;;17.60;15.90;;;;;;;10.97;100.00;99706.88;5047931;28;20687;-63
2022/11/09 07:53:20;;;;;;;16.27;14.43;;;;;;;11.01;100.00;99702.38;5060216;28;20169;-63
2022/11/09 07:55:54;;;;;;;17.03;15.23;;;;;;;11.12;100.00;99701.69;5051083;28;20671;-62
2022/11/09 07:58:19;;;;;;;16.27;14.57;;;;;;;11.05;100.00;99709.00;5064017;28;20227;-64
2022/11/09 08:00:45;;;;;;;17.57;15.87;;;;;;;10.93;100.00;99707.19;5036625;28;20225;-62
2022/11/09 08:03:10;;;;;;;16.40;14.63;;;;;;;11.02;100.00;99709.16;5057347;28;20185;-63
2022/11/09 08:05:36;;;;;;;15.73;14.13;;;;;;;10.94;100.00;99708.81;5033414;28;20243;-63
2022/11/09 08:08:05;;;;;;;16.30;14.70;;;;;;;10.98;100.00;99716.25;5033031;28;20181;-62
2022/11/09 08:10:32;;;;;;;18.23;16.63;;;;;;;11.04;100.00;99711.63;5026604;28;20220;-62
2022/11/09 08:12:59;;;;;;;17.33;15.67;;;;;;;11.10;100.00;99722.38;5045699;28;20702;-63
2022/11/09 08:15:26;;;;;;;17.50;15.80;;;;;;;11.11;100.00;99718.06;5058781;28;20248;-63
2022/11/09 08:17:51;;;;;;;15.67;14.27;;;;;;;11.13;100.00;99718.78;5062974;28;20170;-63
2022/11/09 08:20:18;;;;;;;19.20;16.53;;;;;;;11.05;100.00;99719.28;5042673;28;20344;-64
2022/11/09 08:22:45;;;;;;;17.00;15.40;;;;;;;11.11;100.00;99716.31;5033824;28;20169;-63
2022/11/09 08:25:12;;;;;;;16.30;14.57;;;;;;;11.14;100.00;99729.00;5033262;28;20181;-63
2022/11/09 08:27:39;;;;;;;16.73;15.23;;;;;;;11.18;100.00;99739.09;5032875;28;20288;-64
2022/11/09 08:30:13;;;;;;;16.60;14.90;;;;;;;11.33;100.00;99739.88;5020550;28;20410;-64
2022/11/09 08:32:39;;;;;;;14.83;13.53;;;;;;;11.56;100.00;99735.81;5037682;28;20725;-63
2022/11/09 08:35:05;;;;;;;12.43;11.30;;;;;;;11.59;100.00;99733.06;5031427;28;20209;-63
2022/11/09 08:37:33;;;;;;;11.50;10.60;;;;;;;11.72;100.00;99725.34;5049975;28;20263;-59
2022/11/09 08:39:58;;;;;;;13.60;10.13;;;;;;;11.55;100.00;99726.47;5050984;28;20582;-59
2022/11/09 08:42:23;;;;;;;9.67;8.77;;;;;;;11.64;100.00;99720.69;5055859;28;20274;-64
2022/11/09 08:44:49;;;;;;;9.73;8.50;;;;;;;11.60;100.00;99714.91;5050410;28;20544;-63
2022/11/09 08:47:14;;;;;;;9.47;8.63;;;;;;;11.65;100.00;99713.78;5050351;28;20181;-62
2022/11/09 08:49:39;;;;;;;9.23;8.43;;;;;;;11.92;100.00;99718.88;5050695;28;20561;-63
2022/11/09 08:52:04;;;;;;;10.10;8.00;;;;;;;12.33;100.00;99717.06;5038338;28;20236;-63
2022/11/09 08:54:30;;;;;;;7.47;6.73;;;;;;;13.37;100.00;99702.91;5047461;28;20583;-63
2022/11/09 08:56:55;;;;;;;7.23;6.40;;;;;;;14.03;100.00;99692.91;5053055;28;20270;-63
2022/11/09 08:59:21;;;;;;;7.70;4.13;;;;;;;15.43;100.00;99688.09;5042040;28;20550;-64
2022/11/09 09:01:47;;;;;;;3.47;3.17;;;;;;;16.12;100.00;99684.19;5027035;28;20771;-64
2022/11/09 09:04:12;;;;;;;2.70;2.50;;;;;;;16.67;100.00;99682.16;5058582;28;20198;-65
2022/11/09 09:06:37;;;;;;;2.53;2.30;;;;;;;16.92;100.00;99689.47;5056067;28;20270;-64
2022/11/09 09:09:03;;;;;;;3.00;2.20;;;;;;;16.50;100.00;99699.22;5054789;28;20232;-64
2022/11/09 09:11:28;;;;;;;3.57;2.10;;;;;;;16.90;100.00;99695.75;5037448;28;20312;-64
2022/11/09 09:13:53;;;;;;;2.00;1.90;;;;;;;17.86;100.00;99703.66;5051882;28;20651;-64
2022/11/09 09:16:18;;;;;;;3.07;2.20;;;;;;;16.88;100.00;99708.03;5053845;28;20196;-65
2022/11/09 09:18:47;;;;;;;3.43;1.90;;;;;;;17.02;100.00;99699.88;5054030;28;20597;-64
2022/11/09 09:21:13;;;;;;;3.10;2.80;;;;;;;17.19;100.00;99710.56;5021422;28;20224;-64
2022/11/09 09:23:38;;;;;;;5.03;4.63;;;;;;;16.28;100.00;99706.22;5051100;28;20177;-64
2022/11/09 09:26:04;;;;;;;3.90;2.97;;;;;;;16.68;100.00;99718.38;5053465;28;20658;-61
2022/11/09 09:28:30;;;;;;;3.00;2.30;;;;;;;16.81;100.00;99725.09;5053518;28;20177;-64
2022/11/09 09:30:59;;;;;;;2.90;2.07;;;;;;;15.71;100.00;99724.72;5040068;28;20252;-63
2022/11/09 09:33:26;;;;;;;2.30;2.00;;;;;;;14.96;100.00;99731.59;5025701;28;20261;-60
2022/11/09 09:35:51;;;;;;;2.87;2.40;;;;;;;14.32;100.00;99733.84;5053220;28;20839;-62
2022/11/09 09:38:17;;;;;;;2.57;2.23;;;;;;;13.80;100.00;99732.59;5053129;28;20278;-63
2022/11/09 09:41:00;;;;;;;2.50;2.30;;;;;;;13.92;100.00;99734.25;5025332;28;20229;-61
2022/11/09 09:43:43;;;;;;;2.77;2.57;;;;;;;13.91;100.00;99749.91;5033149;28;20548;-61
2022/11/09 09:46:25;;;;;;;3.27;2.73;;;;;;;14.06;100.00;99740.97;5035297;28;20193;-62
2022/11/09 09:48:57;;;;;;;3.20;2.90;;;;;;;14.24;100.00;99746.53;5035432;28;20255;-62
2022/11/09 09:51:35;;;;;;;5.33;2.33;;;;;;;14.31;100.00;99745.16;5023787;28;20218;-62
2022/11/09 09:54:16;;;;;;;3.03;2.43;;;;;;;14.29;100.00;99747.03;5035879;28;20192;-61
2022/11/09 09:56:44;;;;;;;2.60;1.97;;;;;;;14.65;100.00;99737.41;5033906;28;20268;-63
2022/11/09 09:59:39;;;;;;;2.30;1.77;;;;;;;14.68;100.00;99731.16;5047650;28;20170;-61
2022/11/09 10:02:27;;;;;;;2.07;1.30;;;;;;;14.72;100.00;99732.56;5033698;28;20831;-63
2022/11/09 10:04:56;;;;;;;2.23;1.43;;;;;;;14.92;100.00;99725.84;5034698;28;20660;-64
2022/11/09 10:07:36;;;;;;;4.03;1.70;;;;;;;15.05;100.00;99725.69;5010016;28;20205;-63
2022/11/09 10:10:26;;;;;;;5.60;1.43;;;;;;;15.26;100.00;99728.31;5037706;28;20205;-63
2022/11/09 10:13:22;;;;;;;3.13;1.40;;;;;;;15.49;100.00;99733.41;5056052;28;20205;-63
2022/11/09 10:15:57;;;;;;;2.90;1.07;;;;;;;15.64;100.00;99726.16;5053042;28;20320;-62
2022/11/09 10:18:30;;;;;;;4.17;1.30;;;;;;;15.64;100.00;99731.34;5052467;28;20184;-62
2022/11/09 10:21:07;;;;;;;3.70;1.30;;;;;;;15.59;100.00;99723.97;5019660;28;20221;-62
2022/11/09 10:23:59;;;;;;;3.00;1.20;;;;;;;15.28;100.00;99729.03;5059528;28;20268;-62
2022/11/09 10:26:40;;;;;;;6.27;1.80;;;;;;;15.15;100.00;99720.59;5028628;28;20178;-63
2022/11/09 10:29:26;;;;;;;2.23;1.30;;;;;;;15.32;100.00;99724.44;5034689;28;20263;-63
2022/11/09 10:32:08;;;;;;;2.87;1.40;;;;;;;15.43;100.00;99724.38;5018488;28;20224;-62
2022/11/09 10:34:42;;;;;;;2.37;0.97;;;;;;;15.28;100.00;99725.59;5025708;28;20182;-64
2022/11/09 10:37:17;;;;;;;7.50;1.70;;;;;;;15.24;100.00;99729.41;5033992;28;20926;-63
2022/11/09 10:39:55;;;;;;;5.40;1.30;;;;;;;15.14;100.00;99735.34;5034960;28;20271;-63
2022/11/09 10:42:20;;;;;;;3.13;1.43;;;;;;;15.21;100.00;99717.50;5022203;28;20232;-63
2022/11/09 10:44:46;;;;;;;3.50;1.17;;;;;;;15.26;100.00;99728.31;5044753;28;20512;-62
2022/11/09 10:47:15;;;;;;;6.73;1.40;;;;;;;15.29;100.00;99729.84;5051779;28;20205;-62
2022/11/09 10:49:41;;;;;;;2.83;1.00;;;;;;;15.34;100.00;99725.13;5030088;28;20225;-68
2022/11/09 10:52:31;;;;;;;2.07;1.27;;;;;;;15.59;100.00;99723.13;5020692;28;21884;-57
2022/11/09 10:55:35;;;;;;;3.67;1.47;;;;;;;15.75;100.00;99733.06;5044413;28;20185;-57
2022/11/09 10:58:18;;;;;;;4.80;1.20;;;;;;;15.72;100.00;99743.72;4963727;28;20212;-56
2022/11/09 11:01:15;;;;;;;2.50;1.10;;;;;;;15.87;100.00;99742.47;4948663;28;20236;-56
2022/11/09 11:03:42;;;;;;;2.90;1.20;;;;;;;16.13;100.00;99748.06;4900406;29;20198;-56
2022/11/09 11:06:13;;;;;;;2.07;1.27;;;;;;;16.35;100.00;99743.69;4913362;29;20245;-56
2022/11/09 11:08:41;;;;;;;3.23;1.17;;;;;;;16.11;100.00;99744.81;4913006;29;20201;-56
2022/11/09 11:11:27;;;;;;;4.23;1.80;;;;;;;16.00;100.00;99741.44;4908960;29;20743;-57
2022/11/09 11:14:20;;;;;;;2.03;1.13;;;;;;;15.81;100.00;99745.53;4916488;29;20269;-56
2022/11/09 11:16:46;;;;;;;4.83;1.33;;;;;;;15.60;100.00;99740.34;4912878;29;20656;-57
2022/11/09 11:19:38;;;;;;;3.50;1.00;;;;;;;15.43;100.00;99741.69;4895365;29;20254;-56
2022/11/09 11:22:09;;;;;;;3.10;1.00;;;;;;;15.49;100.00;99736.84;4900696;29;20311;-56
2022/11/09 11:24:41;;;;;;;1.97;1.20;;;;;;;15.49;100.00;99738.59;4913234;29;20186;-56